Bessemer, Michigan
Current Conditions -  °F | °C
As of 6:15 PM on Friday 28 Nov 2014 (Local Time) from KIWD Reporting Station
Overcast Overcast  
Wind Chill: 16°   Ceiling: 3900
Heat Index: 16°   Visibility: 10mi
Dew Point: 10°   Wind: 0mph
Humidity: 79%   Direction: NA
Pressure: 29.86"   Gusts: NA
Location:  46.48°N, 90.05°W
Report Text: KIWD 290015Z AUTO 00000KT 10SM BKN039 OVC100 M09/M12 A2986 RMK AO1
Loading
Personal Weather Stations






























Interactive Weather Map New forecast layout! Learn more

10-Day Weather Forecast

Advertisements
Track Severe Weather on mobile